Time;durP1;ratioP1;P1;durP2;ratioP2;P2;SDS_P1;SDS_P2;PMS_P1;PMS_P2;Temp;Humidity;BMP_temperature;BMP_pressure;BME280_temperature;BME280_humidity;BME280_pressure;Samples;Min_cycle;Max_cycle;Signal;HPM_P1;HPM_P2
2023/05/04 00:00:58;;;;;;;7.05;6.50;;;;;;;;;;5063857;27;99720;-83
2023/05/04 00:03:24;;;;;;;10.85;8.82;;;;;;;;;;5066235;27;99596;-80
2023/05/04 00:05:51;;;;;;;7.65;6.95;;;;;;;;;;5067172;27;98880;-81
2023/05/04 00:08:17;;;;;;;10.65;7.63;;;;;;;;;;5068296;27;99788;-81
2023/05/04 00:10:43;;;;;;;8.10;7.30;;;;;;;;;;5069185;27;99950;-80
2023/05/04 00:13:10;;;;;;;11.23;7.95;;;;;;;;;;5073580;27;98193;-81
2023/05/04 00:15:36;;;;;;;16.38;8.00;;;;;;;;;;5071302;27;100124;-81
2023/05/04 00:18:03;;;;;;;8.48;7.20;;;;;;;;;;5072299;27;98268;-80
2023/05/04 00:20:29;;;;;;;11.45;7.63;;;;;;;;;;5072595;27;99417;-81
2023/05/04 00:22:56;;;;;;;6.90;6.30;;;;;;;;;;5072862;27;98906;-81
2023/05/04 00:25:22;;;;;;;7.80;7.20;;;;;;;;;;5084204;27;98930;-82
2023/05/04 00:27:49;;;;;;;8.10;7.30;;;;;;;;;;5092666;27;98464;-81
2023/05/04 00:30:16;;;;;;;8.63;7.70;;;;;;;;;;5087941;27;98046;-81
2023/05/04 00:32:42;;;;;;;8.55;7.57;;;;;;;;;;5084912;27;98520;-80
2023/05/04 00:35:08;;;;;;;10.45;7.60;;;;;;;;;;5071905;27;98081;-80
2023/05/04 00:37:35;;;;;;;9.02;6.68;;;;;;;;;;5071658;27;98356;-81
2023/05/04 00:40:01;;;;;;;9.63;7.95;;;;;;;;;;5069765;27;101181;-80
2023/05/04 00:42:28;;;;;;;11.35;7.43;;;;;;;;;;5070133;27;100303;-81
2023/05/04 00:44:55;;;;;;;10.52;8.25;;;;;;;;;;5071906;27;98200;-80
2023/05/04 00:47:21;;;;;;;8.13;6.90;;;;;;;;;;5070163;27;98396;-80
2023/05/04 00:49:49;;;;;;;7.85;7.10;;;;;;;;;;5070244;27;98975;-81
2023/05/04 00:52:16;;;;;;;7.97;7.15;;;;;;;;;;5069797;27;98362;-82
2023/05/04 00:54:44;;;;;;;8.77;7.30;;;;;;;;;;5073290;27;98545;-80
2023/05/04 00:57:11;;;;;;;10.65;6.65;;;;;;;;;;5069515;27;98108;-80
2023/05/04 00:59:38;;;;;;;7.88;7.13;;;;;;;;;;5068592;27;98689;-80
2023/05/04 01:02:05;;;;;;;8.27;7.47;;;;;;;;;;5069478;27;98791;-80
2023/05/04 01:04:31;;;;;;;8.73;6.30;;;;;;;;;;5067881;27;98241;-80
2023/05/04 01:07:16;;;;;;;12.68;7.15;;;;;;;;;;5070880;27;99396;-80
2023/05/04 01:09:49;;;;;;;6.60;6.00;;;;;;;;;;5067927;27;99502;-80
2023/05/04 01:12:26;;;;;;;10.05;6.97;;;;;;;;;;5070211;27;98738;-80
2023/05/04 01:14:53;;;;;;;7.50;6.50;;;;;;;;;;5070190;27;99134;-81
2023/05/04 01:17:20;;;;;;;8.55;7.15;;;;;;;;;;5072969;27;98940;-82
2023/05/04 01:19:47;;;;;;;7.75;6.43;;;;;;;;;;5070209;27;98610;-80
2023/05/04 01:22:13;;;;;;;7.60;6.47;;;;;;;;;;5068966;27;98799;-79
2023/05/04 01:24:39;;;;;;;9.23;7.90;;;;;;;;;;5069538;27;98185;-80
2023/05/04 01:27:08;;;;;;;9.75;7.55;;;;;;;;;;5070275;27;98484;-80
2023/05/04 01:29:41;;;;;;;7.18;6.60;;;;;;;;;;5067536;27;100313;-80
2023/05/04 01:32:08;;;;;;;12.65;6.00;;;;;;;;;;5053997;27;98367;-81
2023/05/04 01:34:36;;;;;;;7.03;6.43;;;;;;;;;;5065537;27;100550;-80
2023/05/04 01:37:02;;;;;;;8.63;6.90;;;;;;;;;;5069280;27;100080;-79
2023/05/04 01:39:29;;;;;;;7.32;6.45;;;;;;;;;;5073366;27;98254;-81
2023/05/04 01:41:55;;;;;;;12.68;6.72;;;;;;;;;;5068815;27;100183;-79
2023/05/04 01:44:22;;;;;;;10.60;6.60;;;;;;;;;;5068832;27;98413;-81
2023/05/04 01:46:49;;;;;;;7.78;6.97;;;;;;;;;;5068811;27;98471;-80
2023/05/04 01:49:16;;;;;;;6.78;6.20;;;;;;;;;;5067738;27;100146;-81
2023/05/04 01:51:44;;;;;;;8.15;6.75;;;;;;;;;;5069333;27;98660;-80
2023/05/04 01:54:10;;;;;;;9.05;7.63;;;;;;;;;;5066503;27;99039;-82
2023/05/04 01:56:36;;;;;;;7.78;5.72;;;;;;;;;;5067347;27;101331;-81
2023/05/04 01:59:03;;;;;;;7.72;6.93;;;;;;;;;;5069867;27;98292;-81
2023/05/04 02:01:29;;;;;;;11.63;6.43;;;;;;;;;;5071197;27;100899;-80
2023/05/04 02:03:56;;;;;;;9.45;6.85;;;;;;;;;;5068095;27;98246;-80
2023/05/04 02:06:22;;;;;;;7.45;6.75;;;;;;;;;;5067977;27;99097;-80
2023/05/04 02:08:49;;;;;;;6.57;6.10;;;;;;;;;;5069510;27;98953;-80
2023/05/04 02:11:16;;;;;;;7.53;6.68;;;;;;;;;;5066787;27;98331;-80
2023/05/04 02:13:43;;;;;;;9.38;6.43;;;;;;;;;;5065374;27;101143;-80
2023/05/04 02:16:10;;;;;;;8.60;6.45;;;;;;;;;;5069642;27;98916;-79
2023/05/04 02:18:37;;;;;;;8.50;6.53;;;;;;;;;;5068433;27;98997;-82
2023/05/04 02:21:03;;;;;;;9.73;6.82;;;;;;;;;;5067326;27;99010;-79
2023/05/04 02:23:29;;;;;;;7.40;5.85;;;;;;;;;;5071113;27;98374;-79
2023/05/04 02:25:57;;;;;;;14.90;6.65;;;;;;;;;;5068065;27;99109;-81
2023/05/04 02:28:23;;;;;;;10.27;6.30;;;;;;;;;;5068983;27;100378;-80
2023/05/04 02:30:50;;;;;;;7.93;6.72;;;;;;;;;;5067367;27;98457;-80
2023/05/04 02:33:16;;;;;;;6.60;6.10;;;;;;;;;;5066943;27;101621;-81
2023/05/04 02:35:42;;;;;;;7.07;6.38;;;;;;;;;;5068687;27;100202;-80
2023/05/04 02:38:09;;;;;;;8.30;6.53;;;;;;;;;;5069464;27;98192;-80
2023/05/04 02:40:38;;;;;;;9.48;7.00;;;;;;;;;;5068554;27;98800;-80
2023/05/04 02:43:04;;;;;;;8.57;6.15;;;;;;;;;;5072687;27;98954;-81
2023/05/04 02:45:33;;;;;;;9.07;6.60;;;;;;;;;;5069455;27;98307;-80
2023/05/04 02:48:00;;;;;;;7.18;6.53;;;;;;;;;;5068742;27;98917;-80
2023/05/04 02:50:26;;;;;;;6.68;6.10;;;;;;;;;;5069143;27;98315;-80
2023/05/04 02:52:53;;;;;;;12.52;7.65;;;;;;;;;;5069373;27;98583;-80
2023/05/04 02:55:19;;;;;;;12.70;6.60;;;;;;;;;;5061462;27;100844;-80
2023/05/04 02:57:46;;;;;;;12.13;6.47;;;;;;;;;;5052716;27;99467;-80
2023/05/04 03:00:12;;;;;;;9.05;6.72;;;;;;;;;;5067437;27;99147;-80
2023/05/04 03:02:39;;;;;;;11.52;6.75;;;;;;;;;;5068676;27;99227;-81
2023/05/04 03:05:05;;;;;;;11.38;6.88;;;;;;;;;;5071748;27;98423;-80
2023/05/04 03:07:32;;;;;;;7.25;6.50;;;;;;;;;;5068117;27;98940;-79
2023/05/04 03:09:58;;;;;;;8.85;6.55;;;;;;;;;;5069626;27;98554;-81
2023/05/04 03:12:25;;;;;;;7.53;6.85;;;;;;;;;;5068991;27;98691;-79
2023/05/04 03:14:52;;;;;;;7.97;6.88;;;;;;;;;;5066827;27;101264;-80
2023/05/04 03:17:18;;;;;;;9.45;6.82;;;;;;;;;;5069186;27;98277;-80
2023/05/04 03:19:45;;;;;;;7.13;6.25;;;;;;;;;;5066838;27;99055;-81
2023/05/04 03:22:11;;;;;;;7.43;6.72;;;;;;;;;;5067058;27;100119;-80
2023/05/04 03:24:38;;;;;;;12.60;7.30;;;;;;;;;;5068869;27;98220;-81
2023/05/04 03:27:05;;;;;;;7.50;6.35;;;;;;;;;;5070803;27;101359;-80
2023/05/04 03:29:34;;;;;;;14.13;7.20;;;;;;;;;;5067107;27;98214;-80
2023/05/04 03:32:01;;;;;;;11.48;6.88;;;;;;;;;;5068576;27;101296;-79
2023/05/04 03:34:28;;;;;;;7.93;7.13;;;;;;;;;;5067670;27;101358;-79
2023/05/04 03:37:00;;;;;;;13.35;7.10;;;;;;;;;;5067648;27;99551;-79
2023/05/04 03:39:26;;;;;;;8.27;6.63;;;;;;;;;;5068970;27;99129;-80
2023/05/04 03:41:53;;;;;;;9.63;6.50;;;;;;;;;;5068925;27;99239;-80
2023/05/04 03:44:19;;;;;;;8.20;7.30;;;;;;;;;;5065996;27;98669;-79
2023/05/04 03:46:46;;;;;;;13.88;5.25;;;;;;;;;;5066670;27;98220;-80
2023/05/04 03:49:12;;;;;;;13.60;7.88;;;;;;;;;;5070420;27;99023;-81
2023/05/04 03:51:39;;;;;;;9.27;7.78;;;;;;;;;;5064000;27;98422;-80
2023/05/04 03:54:06;;;;;;;12.52;7.25;;;;;;;;;;5070423;27;100928;-79
2023/05/04 03:56:33;;;;;;;8.80;7.43;;;;;;;;;;5070227;27;98356;-80
2023/05/04 03:59:00;;;;;;;8.35;7.57;;;;;;;;;;5072647;27;99242;-80
2023/05/04 04:01:29;;;;;;;11.75;7.72;;;;;;;;;;5070915;27;102013;-80
2023/05/04 04:03:56;;;;;;;11.00;7.18;;;;;;;;;;5073102;27;98225;-81
2023/05/04 04:06:23;;;;;;;8.27;7.50;;;;;;;;;;5073397;27;99286;-79
2023/05/04 04:08:50;;;;;;;11.45;7.43;;;;;;;;;;5071342;27;101374;-81
2023/05/04 04:11:17;;;;;;;12.65;7.10;;;;;;;;;;5075780;27;98190;-78
2023/05/04 04:13:43;;;;;;;8.68;7.40;;;;;;;;;;5075165;27;100027;-80
2023/05/04 04:16:10;;;;;;;8.68;7.78;;;;;;;;;;5072021;27;98230;-79
2023/05/04 04:18:36;;;;;;;10.10;7.82;;;;;;;;;;5071003;27;99771;-80
2023/05/04 04:21:03;;;;;;;9.98;7.93;;;;;;;;;;5065916;27;99937;-79
2023/05/04 04:23:29;;;;;;;10.00;8.35;;;;;;;;;;5071919;27;98201;-78
2023/05/04 04:25:56;;;;;;;11.88;8.68;;;;;;;;;;5072033;27;99791;-80
2023/05/04 04:28:22;;;;;;;10.68;7.38;;;;;;;;;;5071798;27;100202;-80
2023/05/04 04:30:49;;;;;;;10.88;7.88;;;;;;;;;;5076195;27;98008;-79
2023/05/04 04:33:15;;;;;;;8.73;7.70;;;;;;;;;;5070456;27;99302;-81
2023/05/04 04:35:42;;;;;;;14.88;7.90;;;;;;;;;;5072784;27;98812;-79
2023/05/04 04:38:08;;;;;;;10.80;8.23;;;;;;;;;;5071978;27;99172;-80
2023/05/04 04:40:35;;;;;;;11.05;9.25;;;;;;;;;;5071848;27;100216;-79
2023/05/04 04:43:01;;;;;;;8.57;7.70;;;;;;;;;;5064820;27;99653;-80
2023/05/04 04:45:28;;;;;;;14.52;8.07;;;;;;;;;;5071149;27;98728;-80
2023/05/04 04:47:59;;;;;;;8.90;7.97;;;;;;;;;;5072644;27;99319;-80
2023/05/04 04:50:26;;;;;;;9.93;7.63;;;;;;;;;;5073206;27;98243;-80
2023/05/04 04:52:52;;;;;;;8.85;7.93;;;;;;;;;;5073937;27;100201;-79
2023/05/04 04:55:19;;;;;;;13.68;8.43;;;;;;;;;;5071518;27;98004;-80
2023/05/04 04:57:45;;;;;;;16.13;7.47;;;;;;;;;;5071508;27;99783;-80
2023/05/04 05:00:13;;;;;;;10.40;7.80;;;;;;;;;;5073880;27;100051;-80
2023/05/04 05:02:39;;;;;;;22.70;8.18;;;;;;;;;;5063032;27;98288;-79
2023/05/04 05:05:06;;;;;;;10.52;7.65;;;;;;;;;;5072481;27;99321;-79
2023/05/04 05:07:33;;;;;;;14.10;8.20;;;;;;;;;;5072450;27;99821;-78
2023/05/04 05:10:00;;;;;;;10.10;7.60;;;;;;;;;;5065472;27;98350;-80
2023/05/04 05:12:27;;;;;;;9.60;7.93;;;;;;;;;;5073699;27;98580;-79
2023/05/04 05:14:53;;;;;;;10.80;7.93;;;;;;;;;;5076736;27;99698;-78
2023/05/04 05:17:23;;;;;;;9.25;8.35;;;;;;;;;;5073862;27;99530;-78
2023/05/04 05:19:49;;;;;;;12.77;8.25;;;;;;;;;;5074119;27;100219;-79
2023/05/04 05:22:16;;;;;;;11.00;8.13;;;;;;;;;;5073191;27;98171;-79
2023/05/04 05:24:42;;;;;;;13.25;7.80;;;;;;;;;;5076269;27;98562;-78
2023/05/04 05:27:08;;;;;;;9.98;8.02;;;;;;;;;;5075430;27;99958;-80
2023/05/04 05:29:37;;;;;;;10.25;7.75;;;;;;;;;;5063464;27;98310;-80
2023/05/04 05:32:03;;;;;;;8.85;8.05;;;;;;;;;;5054721;27;99799;-79
2023/05/04 05:34:30;;;;;;;11.45;9.18;;;;;;;;;;5059934;27;100181;-79
2023/05/04 05:36:57;;;;;;;12.38;8.98;;;;;;;;;;5075451;27;98231;-78
2023/05/04 05:39:23;;;;;;;8.77;7.72;;;;;;;;;;5074034;27;99273;-80
2023/05/04 05:41:49;;;;;;;8.75;7.82;;;;;;;;;;5072389;27;98350;-76
2023/05/04 05:44:16;;;;;;;8.07;7.40;;;;;;;;;;5071854;27;99483;-77
2023/05/04 05:46:42;;;;;;;14.55;6.97;;;;;;;;;;5061043;27;99609;-76
2023/05/04 05:49:09;;;;;;;8.68;7.93;;;;;;;;;;5071343;27;98302;-79
2023/05/04 05:51:37;;;;;;;9.68;8.77;;;;;;;;;;5070941;27;99554;-78
2023/05/04 05:54:03;;;;;;;14.55;7.50;;;;;;;;;;5070958;27;100413;-81
2023/05/04 05:56:29;;;;;;;8.70;7.88;;;;;;;;;;5064345;27;98178;-79
2023/05/04 05:58:55;;;;;;;7.57;6.90;;;;;;;;;;5071808;27;99758;-78
2023/05/04 06:01:22;;;;;;;10.85;8.30;;;;;;;;;;5067315;27;98054;-77
2023/05/04 06:03:49;;;;;;;8.70;7.68;;;;;;;;;;5059409;27;99742;-78
2023/05/04 06:06:16;;;;;;;11.55;7.85;;;;;;;;;;5066326;27;100067;-79
2023/05/04 06:08:42;;;;;;;10.93;7.72;;;;;;;;;;5074668;27;98347;-77
2023/05/04 06:11:10;;;;;;;11.52;8.32;;;;;;;;;;5084587;27;100203;-78
2023/05/04 06:13:37;;;;;;;14.38;8.70;;;;;;;;;;5086989;27;98852;-79
2023/05/04 06:16:03;;;;;;;8.07;6.50;;;;;;;;;;5088503;27;98297;-78
2023/05/04 06:18:30;;;;;;;12.07;7.60;;;;;;;;;;5082281;27;98200;-78
2023/05/04 06:20:57;;;;;;;20.70;8.95;;;;;;;;;;5088334;27;99148;-79
2023/05/04 06:23:25;;;;;;;8.88;6.80;;;;;;;;;;5083060;27;99056;-76
2023/05/04 06:25:51;;;;;;;11.93;8.32;;;;;;;;;;5081303;27;99231;-80
2023/05/04 06:28:17;;;;;;;12.32;7.75;;;;;;;;;;5079569;27;98013;-77
2023/05/04 06:30:47;;;;;;;14.63;7.95;;;;;;;;;;5085113;27;98158;-76
2023/05/04 06:33:13;;;;;;;10.98;8.13;;;;;;;;;;5083283;27;98185;-78
2023/05/04 06:35:40;;;;;;;9.63;6.90;;;;;;;;;;5085461;27;98192;-77
2023/05/04 06:38:06;;;;;;;7.75;6.85;;;;;;;;;;5086193;27;98409;-79
2023/05/04 06:40:32;;;;;;;9.70;7.95;;;;;;;;;;5086619;27;100008;-77
2023/05/04 06:42:59;;;;;;;10.27;7.72;;;;;;;;;;5080548;27;98788;-77
2023/05/04 06:45:25;;;;;;;8.10;7.00;;;;;;;;;;5079365;27;100122;-77
2023/05/04 06:47:52;;;;;;;14.55;8.43;;;;;;;;;;5091977;27;97967;-78
2023/05/04 06:50:22;;;;;;;8.65;7.85;;;;;;;;;;5091388;27;97931;-77
2023/05/04 06:52:50;;;;;;;10.63;6.80;;;;;;;;;;5090351;27;99310;-78
2023/05/04 06:55:17;;;;;;;12.07;7.43;;;;;;;;;;5078716;27;98174;-77
2023/05/04 06:57:44;;;;;;;9.77;7.40;;;;;;;;;;5075830;27;99797;-78
2023/05/04 07:00:11;;;;;;;11.35;7.05;;;;;;;;;;5076461;27;99113;-79
2023/05/04 07:02:37;;;;;;;14.32;7.30;;;;;;;;;;5092982;27;98129;-78
2023/05/04 07:05:04;;;;;;;10.07;7.00;;;;;;;;;;5092084;27;99226;-79
2023/05/04 07:07:30;;;;;;;8.70;6.45;;;;;;;;;;5089821;27;98112;-77
2023/05/04 07:09:56;;;;;;;12.18;6.75;;;;;;;;;;5091279;27;98127;-79
2023/05/04 07:12:23;;;;;;;11.43;7.07;;;;;;;;;;5081038;27;99316;-80
2023/05/04 07:14:49;;;;;;;9.18;6.88;;;;;;;;;;5080682;27;98298;-78
2023/05/04 07:17:15;;;;;;;9.48;6.63;;;;;;;;;;5079102;27;99795;-78
2023/05/04 07:19:42;;;;;;;7.80;6.57;;;;;;;;;;5088202;27;99510;-78
2023/05/04 07:22:09;;;;;;;12.75;6.28;;;;;;;;;;5076482;27;98311;-78
2023/05/04 07:24:35;;;;;;;6.47;5.70;;;;;;;;;;5073855;27;100043;-78
2023/05/04 07:27:04;;;;;;;6.53;5.93;;;;;;;;;;5081907;27;98353;-79
2023/05/04 07:29:31;;;;;;;11.00;6.45;;;;;;;;;;5074142;27;98552;-79
2023/05/04 07:31:57;;;;;;;7.85;5.82;;;;;;;;;;5072030;27;100199;-79
2023/05/04 07:34:23;;;;;;;9.60;6.38;;;;;;;;;;5072008;27;98275;-80
2023/05/04 07:37:04;;;;;;;7.82;5.75;;;;;;;;;;5070073;27;99293;-79
2023/05/04 07:39:30;;;;;;;8.90;6.68;;;;;;;;;;5061527;27;100104;-77
2023/05/04 07:41:56;;;;;;;8.25;6.38;;;;;;;;;;5058147;27;99071;-76
2023/05/04 07:44:23;;;;;;;7.07;6.28;;;;;;;;;;5079397;27;99922;-81
2023/05/04 07:46:49;;;;;;;8.80;6.18;;;;;;;;;;5081697;27;98774;-80
2023/05/04 07:49:16;;;;;;;7.85;6.68;;;;;;;;;;5070136;27;99128;-78
2023/05/04 07:51:42;;;;;;;8.40;6.55;;;;;;;;;;5070036;27;99352;-78
2023/05/04 07:54:09;;;;;;;8.52;5.65;;;;;;;;;;5063560;27;98425;-80
2023/05/04 07:56:36;;;;;;;9.00;6.00;;;;;;;;;;5068417;27;99577;-80
2023/05/04 07:59:02;;;;;;;7.60;5.55;;;;;;;;;;5069286;27;99583;-79
2023/05/04 08:01:28;;;;;;;5.85;5.13;;;;;;;;;;5069158;27;98239;-79
2023/05/04 08:03:58;;;;;;;6.90;5.72;;;;;;;;;;5069505;27;99700;-81
2023/05/04 08:06:24;;;;;;;12.05;5.57;;;;;;;;;;5071903;27;99961;-80
2023/05/04 08:08:51;;;;;;;6.30;5.72;;;;;;;;;;5075309;27;99378;-79
2023/05/04 08:11:18;;;;;;;13.45;5.97;;;;;;;;;;5071179;27;100151;-79
2023/05/04 08:13:49;;;;;;;8.50;5.20;;;;;;;;;;5060324;27;98197;-80
2023/05/04 08:16:16;;;;;;;9.10;6.05;;;;;;;;;;5064291;27;99671;-79
2023/05/04 08:18:43;;;;;;;7.88;5.93;;;;;;;;;;5066004;27;99992;-80
2023/05/04 08:21:10;;;;;;;7.53;5.80;;;;;;;;;;5074538;27;98482;-77
2023/05/04 08:23:37;;;;;;;6.50;5.60;;;;;;;;;;5074576;27;99008;-78
2023/05/04 08:26:03;;;;;;;8.85;5.90;;;;;;;;;;5072534;27;100071;-78
2023/05/04 08:28:36;;;;;;;10.30;6.20;;;;;;;;;;5076897;27;99068;-77
2023/05/04 08:31:02;;;;;;;14.05;5.47;;;;;;;;;;5077039;27;100001;-78
2023/05/04 08:33:29;;;;;;;8.32;5.60;;;;;;;;;;5078826;27;98007;-78
2023/05/04 08:35:56;;;;;;;7.68;5.65;;;;;;;;;;5073757;27;98811;-79
2023/05/04 08:38:22;;;;;;;7.72;5.50;;;;;;;;;;5074213;27;98273;-79
2023/05/04 08:40:49;;;;;;;8.10;6.30;;;;;;;;;;5080707;27;98245;-79
2023/05/04 08:43:15;;;;;;;7.85;6.20;;;;;;;;;;5077676;27;98229;-79
2023/05/04 08:45:42;;;;;;;7.95;5.68;;;;;;;;;;5068549;27;99785;-76
2023/05/04 08:48:09;;;;;;;9.55;5.88;;;;;;;;;;5073859;27;98322;-78
2023/05/04 08:50:36;;;;;;;7.47;5.50;;;;;;;;;;5082640;27;98838;-78
2023/05/04 08:53:07;;;;;;;9.45;5.82;;;;;;;;;;5079629;27;98046;-79
2023/05/04 08:55:35;;;;;;;11.35;6.35;;;;;;;;;;5073758;27;98358;-78
2023/05/04 08:58:04;;;;;;;10.15;5.38;;;;;;;;;;5066181;27;99493;-78
2023/05/04 09:00:31;;;;;;;10.43;5.70;;;;;;;;;;5075744;27;97952;-78
2023/05/04 09:03:02;;;;;;;6.78;5.90;;;;;;;;;;5066918;27;98181;-78
2023/05/04 09:05:29;;;;;;;12.57;6.45;;;;;;;;;;5075410;27;100247;-78
2023/05/04 09:07:55;;;;;;;11.07;5.78;;;;;;;;;;5073097;27;98299;-78
2023/05/04 09:10:22;;;;;;;11.02;5.68;;;;;;;;;;5079785;27;99740;-79
2023/05/04 09:12:52;;;;;;;6.80;5.47;;;;;;;;;;5081164;27;98220;-78
2023/05/04 09:15:19;;;;;;;7.68;5.18;;;;;;;;;;5074697;27;98484;-77
2023/05/04 09:18:01;;;;;;;8.70;4.97;;;;;;;;;;5070785;27;100126;-76
2023/05/04 09:20:28;;;;;;;5.73;4.27;;;;;;;;;;5065387;27;98392;-76
2023/05/04 09:22:58;;;;;;;9.30;5.03;;;;;;;;;;5070427;27;99409;-77
2023/05/04 09:25:24;;;;;;;6.10;5.50;;;;;;;;;;5069457;27;100837;-78
2023/05/04 09:27:52;;;;;;;6.38;4.53;;;;;;;;;;5068722;27;98272;-78
2023/05/04 09:30:21;;;;;;;8.07;4.50;;;;;;;;;;5063061;27;99881;-77
2023/05/04 09:32:48;;;;;;;5.40;4.07;;;;;;;;;;5071747;27;100072;-76
2023/05/04 09:35:28;;;;;;;5.18;4.35;;;;;;;;;;5079333;27;98628;-80
2023/05/04 09:37:59;;;;;;;11.43;5.03;;;;;;;;;;5074965;27;99025;-78
2023/05/04 09:40:29;;;;;;;6.40;5.18;;;;;;;;;;5076152;27;98252;-78
2023/05/04 09:42:56;;;;;;;6.82;4.38;;;;;;;;;;5073710;27;98970;-77
2023/05/04 09:45:22;;;;;;;8.15;4.40;;;;;;;;;;5068584;27;99742;-77
2023/05/04 09:47:51;;;;;;;9.32;4.32;;;;;;;;;;5070066;27;98180;-77
2023/05/04 09:50:21;;;;;;;6.22;4.60;;;;;;;;;;5069127;27;98463;-77
2023/05/04 09:52:48;;;;;;;6.90;4.35;;;;;;;;;;5068736;27;100112;-78
2023/05/04 09:55:16;;;;;;;8.07;4.70;;;;;;;;;;5067197;27;98538;-78
2023/05/04 09:57:43;;;;;;;8.63;4.55;;;;;;;;;;5070997;27;98855;-78
2023/05/04 10:00:15;;;;;;;6.75;3.72;;;;;;;;;;5068628;27;98346;-78
2023/05/04 10:02:45;;;;;;;6.32;4.40;;;;;;;;;;5069843;27;99686;-77
2023/05/04 10:05:13;;;;;;;8.07;3.78;;;;;;;;;;5067786;27;98880;-78
2023/05/04 10:07:39;;;;;;;10.23;4.53;;;;;;;;;;5069674;27;98944;-78
2023/05/04 10:10:07;;;;;;;6.28;4.20;;;;;;;;;;5067818;27;99217;-78
2023/05/04 10:12:36;;;;;;;6.85;4.68;;;;;;;;;;5067434;27;100297;-78
2023/05/04 10:15:05;;;;;;;8.40;4.75;;;;;;;;;;5069038;27;98294;-78
2023/05/04 10:17:50;;;;;;;9.15;4.50;;;;;;;;;;5066622;27;98757;-77
2023/05/04 10:20:35;;;;;;;5.82;4.50;;;;;;;;;;5069282;27;99799;-77
2023/05/04 10:23:20;;;;;;;6.45;4.38;;;;;;;;;;5066740;27;99816;-78
2023/05/04 10:26:19;;;;;;;5.50;4.40;;;;;;;;;;5062375;27;99186;-77
2023/05/04 10:28:55;;;;;;;5.57;4.05;;;;;;;;;;5020289;27;100790;-77
2023/05/04 10:31:22;;;;;;;8.32;3.88;;;;;;;;;;5064343;27;99888;-78
2023/05/04 10:33:48;;;;;;;4.90;4.40;;;;;;;;;;5068188;27;100075;-78
2023/05/04 10:36:15;;;;;;;4.68;4.10;;;;;;;;;;5068154;27;98252;-78
2023/05/04 10:38:41;;;;;;;8.93;4.07;;;;;;;;;;5068215;27;99574;-76
2023/05/04 10:41:15;;;;;;;7.50;4.30;;;;;;;;;;5066181;27;100130;-78
2023/05/04 10:43:41;;;;;;;6.78;4.78;;;;;;;;;;5067817;27;98800;-78
2023/05/04 10:46:15;;;;;;;9.77;4.57;;;;;;;;;;5061174;27;100150;-77
2023/05/04 10:48:42;;;;;;;6.07;4.18;;;;;;;;;;5064342;27;98240;-79
2023/05/04 10:51:16;;;;;;;6.25;3.95;;;;;;;;;;5067385;27;99528;-78
2023/05/04 10:53:42;;;;;;;10.85;4.65;;;;;;;;;;5059898;27;99999;-78
2023/05/04 10:56:19;;;;;;;5.25;4.25;;;;;;;;;;5065652;27;98315;-79
2023/05/04 10:58:45;;;;;;;5.07;3.97;;;;;;;;;;5065459;27;99340;-79
2023/05/04 11:01:12;;;;;;;8.65;4.18;;;;;;;;;;5067812;27;100076;-77
2023/05/04 11:03:41;;;;;;;10.73;4.45;;;;;;;;;;5070757;27;98328;-82
2023/05/04 11:06:18;;;;;;;8.35;4.35;;;;;;;;;;5063017;27;98993;-78
2023/05/04 11:09:11;;;;;;;6.35;4.55;;;;;;;;;;5061279;27;98555;-78
2023/05/04 11:11:37;;;;;;;8.98;4.90;;;;;;;;;;5063524;27;99359;-77
2023/05/04 11:14:04;;;;;;;5.15;4.25;;;;;;;;;;5062679;27;99701;-78
2023/05/04 11:16:30;;;;;;;10.35;5.00;;;;;;;;;;5066939;27;101279;-79
2023/05/04 11:19:06;;;;;;;5.82;5.25;;;;;;;;;;5060874;27;99630;-79
2023/05/04 11:21:33;;;;;;;7.70;4.65;;;;;;;;;;5065270;27;100001;-77
2023/05/04 11:23:59;;;;;;;7.78;4.78;;;;;;;;;;5061216;27;101582;-80
2023/05/04 11:26:27;;;;;;;9.40;4.70;;;;;;;;;;5070407;27;99382;-77
2023/05/04 11:28:53;;;;;;;5.55;4.35;;;;;;;;;;5060637;27;98350;-78
2023/05/04 11:31:20;;;;;;;6.80;4.85;;;;;;;;;;5068543;27;99793;-79
2023/05/04 11:33:47;;;;;;;5.95;4.32;;;;;;;;;;5062168;27;99609;-78
2023/05/04 11:36:14;;;;;;;7.75;4.00;;;;;;;;;;5068149;27;98283;-77
2023/05/04 11:38:43;;;;;;;5.15;3.92;;;;;;;;;;5068212;27;98508;-77
2023/05/04 11:41:11;;;;;;;6.25;4.20;;;;;;;;;;5066789;27;99011;-78
2023/05/04 11:43:38;;;;;;;8.68;3.70;;;;;;;;;;5068437;27;98330;-77
2023/05/04 11:46:05;;;;;;;8.55;3.88;;;;;;;;;;5068523;27;99451;-77
2023/05/04 11:48:32;;;;;;;7.55;3.47;;;;;;;;;;5062778;27;99878;-77
2023/05/04 11:51:01;;;;;;;3.72;3.45;;;;;;;;;;5065737;27;101037;-77
2023/05/04 11:53:34;;;;;;;5.03;4.00;;;;;;;;;;5067983;27;100004;-78
2023/05/04 11:56:02;;;;;;;4.50;3.63;;;;;;;;;;5068009;27;98179;-78
2023/05/04 11:58:28;;;;;;;4.03;3.72;;;;;;;;;;5067112;27;98450;-78
2023/05/04 12:00:55;;;;;;;8.30;4.72;;;;;;;;;;5067585;27;99240;-77
2023/05/04 12:03:26;;;;;;;10.75;4.40;;;;;;;;;;5066353;27;98656;-79
2023/05/04 12:06:15;;;;;;;9.27;4.00;;;;;;;;;;5067611;27;98822;-77
2023/05/04 12:08:42;;;;;;;10.05;4.45;;;;;;;;;;5069723;27;99196;-78
2023/05/04 12:11:24;;;;;;;6.80;4.60;;;;;;;;;;5074765;27;98256;-78
2023/05/04 12:14:12;;;;;;;5.70;4.30;;;;;;;;;;5072128;27;100162;-78
2023/05/04 12:16:41;;;;;;;5.65;5.03;;;;;;;;;;5070591;27;98541;-78
2023/05/04 12:19:11;;;;;;;10.02;4.75;;;;;;;;;;5067850;27;99739;-78
2023/05/04 12:21:53;;;;;;;5.28;4.75;;;;;;;;;;5064271;27;99029;-77
2023/05/04 12:24:20;;;;;;;9.88;4.88;;;;;;;;;;5069257;27;98340;-79
2023/05/04 12:26:47;;;;;;;4.57;4.03;;;;;;;;;;5071464;27;99435;-78
2023/05/04 12:29:13;;;;;;;4.70;4.35;;;;;;;;;;5071493;27;99555;-77
2023/05/04 12:31:39;;;;;;;10.18;4.85;;;;;;;;;;5069832;27;98242;-78
2023/05/04 12:34:06;;;;;;;10.68;4.63;;;;;;;;;;5075360;27;99531;-79
2023/05/04 12:36:33;;;;;;;8.65;4.72;;;;;;;;;;5072081;27;98784;-79
2023/05/04 12:38:59;;;;;;;9.75;4.53;;;;;;;;;;5070600;27;99414;-78
2023/05/04 12:41:26;;;;;;;8.23;5.95;;;;;;;;;;5070857;27;99880;-77
2023/05/04 12:43:52;;;;;;;9.75;5.35;;;;;;;;;;5070601;27;98820;-79
2023/05/04 12:46:21;;;;;;;8.20;4.97;;;;;;;;;;5070708;27;98635;-79
2023/05/04 12:48:47;;;;;;;9.70;5.15;;;;;;;;;;5069957;27;100334;-78
2023/05/04 12:51:14;;;;;;;7.50;5.90;;;;;;;;;;5062155;27;98351;-79
2023/05/04 12:53:41;;;;;;;6.78;5.65;;;;;;;;;;5071923;27;99313;-79
2023/05/04 12:56:07;;;;;;;9.05;6.20;;;;;;;;;;5072566;27;99948;-78
2023/05/04 12:58:34;;;;;;;5.13;4.68;;;;;;;;;;5069961;27;98604;-78
2023/05/04 13:01:00;;;;;;;8.80;5.05;;;;;;;;;;5070053;27;98951;-79
2023/05/04 13:03:28;;;;;;;10.25;5.22;;;;;;;;;;5070024;27;98391;-78
2023/05/04 13:05:56;;;;;;;7.55;6.15;;;;;;;;;;5071049;27;99424;-77
2023/05/04 13:08:22;;;;;;;6.38;5.75;;;;;;;;;;5070521;27;101234;-79
2023/05/04 13:10:51;;;;;;;10.80;5.60;;;;;;;;;;5071055;27;98601;-78
2023/05/04 13:13:17;;;;;;;8.43;5.13;;;;;;;;;;5070958;27;99568;-79
2023/05/04 13:15:48;;;;;;;7.50;5.68;;;;;;;;;;5077929;27;99070;-80
2023/05/04 13:18:15;;;;;;;10.98;6.20;;;;;;;;;;5074407;27;99302;-79
2023/05/04 13:20:42;;;;;;;9.63;6.70;;;;;;;;;;5073948;27;99952;-79
2023/05/04 13:23:08;;;;;;;11.90;5.80;;;;;;;;;;5071193;27;98240;-79
2023/05/04 13:25:35;;;;;;;7.05;6.45;;;;;;;;;;5070925;27;99708;-79
2023/05/04 13:28:01;;;;;;;11.80;5.07;;;;;;;;;;5068240;27;99332;-79
2023/05/04 13:30:28;;;;;;;10.02;6.40;;;;;;;;;;5070449;27;98268;-80
2023/05/04 13:32:55;;;;;;;12.57;6.70;;;;;;;;;;5070040;27;98527;-80
2023/05/04 13:35:22;;;;;;;6.90;6.28;;;;;;;;;;5069479;27;98945;-79
2023/05/04 13:37:49;;;;;;;10.48;6.03;;;;;;;;;;5073143;27;98272;-82
2023/05/04 13:40:17;;;;;;;6.60;5.80;;;;;;;;;;5067543;27;99893;-80
2023/05/04 13:42:43;;;;;;;6.82;6.18;;;;;;;;;;5071230;27;98416;-77
2023/05/04 13:45:10;;;;;;;11.05;6.38;;;;;;;;;;5074541;27;99712;-78
2023/05/04 13:47:38;;;;;;;9.63;6.15;;;;;;;;;;5072208;27;98982;-78
2023/05/04 13:50:06;;;;;;;8.65;5.93;;;;;;;;;;5074630;27;98914;-78
2023/05/04 13:52:32;;;;;;;8.55;6.28;;;;;;;;;;5068972;27;98849;-77
2023/05/04 13:54:58;;;;;;;10.02;6.13;;;;;;;;;;5077546;27;98821;-78
2023/05/04 13:57:28;;;;;;;13.23;6.00;;;;;;;;;;5069932;27;98233;-78
2023/05/04 13:59:55;;;;;;;11.23;6.90;;;;;;;;;;5074497;27;98744;-79
2023/05/04 14:02:38;;;;;;;6.65;5.93;;;;;;;;;;5079411;27;98374;-78
2023/05/04 14:05:06;;;;;;;7.25;6.25;;;;;;;;;;5071586;27;98132;-79
2023/05/04 14:07:33;;;;;;;7.30;5.95;;;;;;;;;;5075223;27;99378;-78
2023/05/04 14:10:00;;;;;;;8.98;5.38;;;;;;;;;;5073759;27;98505;-79
2023/05/04 14:12:27;;;;;;;9.77;5.75;;;;;;;;;;5072557;27;99512;-79
2023/05/04 14:14:54;;;;;;;14.75;5.93;;;;;;;;;;5071289;27;99910;-79
2023/05/04 14:17:21;;;;;;;8.38;6.55;;;;;;;;;;5072839;27;98306;-78
2023/05/04 14:19:48;;;;;;;6.30;5.75;;;;;;;;;;5073623;27;99701;-78
2023/05/04 14:22:14;;;;;;;19.10;5.38;;;;;;;;;;5076399;27;100096;-78
2023/05/04 14:24:42;;;;;;;10.40;5.40;;;;;;;;;;5076613;27;99506;-77
2023/05/04 14:27:08;;;;;;;7.45;4.88;;;;;;;;;;5075539;27;99027;-79
2023/05/04 14:29:35;;;;;;;6.10;5.05;;;;;;;;;;5077494;27;99163;-79
2023/05/04 14:32:01;;;;;;;7.40;5.90;;;;;;;;;;5076304;27;98943;-78
2023/05/04 14:34:28;;;;;;;6.72;5.85;;;;;;;;;;5078815;27;100398;-78
2023/05/04 14:36:54;;;;;;;10.82;5.78;;;;;;;;;;5077905;27;98301;-78
2023/05/04 14:39:21;;;;;;;5.63;5.15;;;;;;;;;;5069696;27;99392;-79